createdAt,value
2019-01-14T00:01:50.858Z,2.67
2019-01-14T00:04:19.214Z,3.47
2019-01-14T00:06:47.554Z,2.60
2019-01-14T00:09:23.256Z,2.77
2019-01-14T00:11:47.278Z,3.17
2019-01-14T00:14:15.634Z,2.77
2019-01-14T00:16:44.159Z,2.30
2019-01-14T00:19:12.493Z,3.50
2019-01-14T00:21:40.824Z,3.73
2019-01-14T00:24:09.165Z,3.93
2019-01-14T00:26:37.514Z,2.50
2019-01-14T00:29:05.845Z,3.03
2019-01-14T00:31:34.196Z,3.60
2019-01-14T00:34:02.903Z,3.00
2019-01-14T00:36:31.317Z,0.83
2019-01-14T00:38:59.640Z,1.83
2019-01-14T00:41:27.994Z,3.43
2019-01-14T00:43:56.324Z,2.50
2019-01-14T00:46:24.677Z,2.13
2019-01-14T00:48:53.009Z,3.67
2019-01-14T00:51:21.357Z,2.43
2019-01-14T00:53:49.702Z,2.70
2019-01-14T00:56:18.041Z,3.43
2019-01-14T00:58:47.552Z,2.93
2019-01-14T01:01:15.897Z,3.73
2019-01-14T01:03:44.523Z,3.80
2019-01-14T01:06:12.870Z,3.67
2019-01-14T01:08:41.201Z,3.03
2019-01-14T01:11:09.569Z,3.00
2019-01-14T01:13:37.900Z,2.97
2019-01-14T01:16:06.245Z,2.70
2019-01-14T01:18:34.648Z,3.30
2019-01-14T01:21:03.951Z,2.90
2019-01-14T01:23:32.298Z,2.03
2019-01-14T01:26:00.635Z,3.33
2019-01-14T01:28:28.969Z,1.60
2019-01-14T01:30:57.329Z,1.60
2019-01-14T01:33:25.658Z,2.30
2019-01-14T01:35:54.070Z,2.13
2019-01-14T01:38:22.431Z,2.23
2019-01-14T01:40:50.762Z,1.67
2019-01-14T01:43:19.088Z,1.67
2019-01-14T01:45:47.430Z,1.87
2019-01-14T01:48:15.760Z,1.57
2019-01-14T01:50:44.104Z,1.87
2019-01-14T01:53:12.438Z,1.87
2019-01-14T01:55:40.774Z,1.67
2019-01-14T01:58:09.110Z,0.97
2019-01-14T02:00:37.441Z,0.80
2019-01-14T02:03:05.780Z,1.20
2019-01-14T02:05:34.109Z,1.07
2019-01-14T02:08:02.440Z,0.90
2019-01-14T02:10:30.784Z,0.87
2019-01-14T02:12:59.126Z,0.70
2019-01-14T02:15:27.454Z,1.00
2019-01-14T02:17:55.794Z,1.40
2019-01-14T02:20:25.189Z,0.70
2019-01-14T02:22:53.525Z,1.00
2019-01-14T02:25:21.863Z,1.67
2019-01-14T02:27:50.197Z,1.13
2019-01-14T02:30:19.503Z,1.40
2019-01-14T02:32:47.838Z,1.10
2019-01-14T02:35:17.353Z,1.30
2019-01-14T02:37:45.684Z,1.17
2019-01-14T02:40:17.674Z,1.77
2019-01-14T02:42:46.461Z,1.07
2019-01-14T02:45:15.432Z,1.40
2019-01-14T02:47:43.772Z,1.60
2019-01-14T02:50:12.384Z,2.03
2019-01-14T02:52:40.718Z,1.93
2019-01-14T02:55:09.425Z,1.40
2019-01-14T02:57:37.760Z,2.00
2019-01-14T03:00:08.200Z,2.10
2019-01-14T03:02:36.609Z,1.80
2019-01-14T03:05:05.716Z,1.67
2019-01-14T03:07:34.061Z,1.20
2019-01-14T03:10:02.491Z,2.60
2019-01-14T03:12:30.894Z,2.10
2019-01-14T03:14:59.242Z,2.17
2019-01-14T03:17:27.585Z,1.93
2019-01-14T03:19:55.926Z,1.30
2019-01-14T03:22:25.342Z,1.00
2019-01-14T03:24:53.672Z,1.80
2019-01-14T03:27:22.015Z,1.87
2019-01-14T03:29:50.355Z,1.23
2019-01-14T03:32:18.686Z,1.30
2019-01-14T03:34:47.014Z,1.33
2019-01-14T03:37:15.352Z,1.63
2019-01-14T03:39:43.694Z,0.83
2019-01-14T03:42:12.038Z,1.20
2019-01-14T03:44:40.373Z,1.23
2019-01-14T03:47:08.725Z,1.90
2019-01-14T03:49:37.065Z,1.30
2019-01-14T03:52:05.389Z,0.80
2019-01-14T03:54:33.741Z,1.30
2019-01-14T03:57:02.074Z,1.20
2019-01-14T03:59:30.409Z,1.60
2019-01-14T04:01:58.755Z,1.40
2019-01-14T04:04:27.082Z,1.60
2019-01-14T04:06:55.430Z,1.43
2019-01-14T04:09:23.756Z,1.63
2019-01-14T04:11:52.096Z,2.07
2019-01-14T04:14:20.435Z,1.50
2019-01-14T04:16:48.777Z,1.27
2019-01-14T04:19:17.110Z,0.80
2019-01-14T04:21:45.450Z,1.30
2019-01-14T04:24:13.786Z,1.30
2019-01-14T04:26:42.121Z,1.50
2019-01-14T04:29:10.444Z,1.30
2019-01-14T04:31:38.804Z,0.47
2019-01-14T04:34:07.189Z,0.93
2019-01-14T04:36:35.527Z,1.30
2019-01-14T04:39:07.015Z,1.37
2019-01-14T04:41:35.352Z,1.30
2019-01-14T04:44:03.689Z,1.30
2019-01-14T04:46:32.042Z,1.67
2019-01-14T04:49:00.376Z,1.67
2019-01-14T04:51:28.717Z,1.83
2019-01-14T04:53:57.063Z,1.23
2019-01-14T04:56:25.406Z,1.07
2019-01-14T04:58:53.747Z,1.17
2019-01-14T05:01:22.077Z,1.20
2019-01-14T05:03:50.416Z,1.37
2019-01-14T05:06:18.754Z,1.67
2019-01-14T05:08:47.091Z,1.43
2019-01-14T05:11:15.444Z,1.77
2019-01-14T05:13:43.777Z,1.70
2019-01-14T05:16:12.158Z,1.60
2019-01-14T05:18:40.529Z,2.33
2019-01-14T05:21:08.880Z,1.43
2019-01-14T05:23:37.293Z,1.60
2019-01-14T05:26:05.647Z,1.40
2019-01-14T05:28:33.969Z,1.60
2019-01-14T05:31:02.317Z,1.60
2019-01-14T05:33:30.637Z,1.67
2019-01-14T05:35:58.982Z,2.17
2019-01-14T05:38:27.329Z,1.83
2019-01-14T05:40:55.668Z,1.47
2019-01-14T05:43:24.009Z,0.60
2019-01-14T05:45:52.337Z,1.57
2019-01-14T05:48:20.681Z,1.63
2019-01-14T05:50:49.004Z,0.73
2019-01-14T05:53:17.349Z,1.10
2019-01-14T05:55:45.689Z,1.50
2019-01-14T05:58:14.039Z,1.20
2019-01-14T06:00:44.004Z,0.57
2019-01-14T06:03:12.349Z,1.07
2019-01-14T06:05:40.685Z,1.10
2019-01-14T06:08:09.037Z,1.33
2019-01-14T06:10:37.381Z,1.57
2019-01-14T06:13:05.718Z,1.87
2019-01-14T06:15:34.126Z,1.70
2019-01-14T06:18:02.473Z,1.90
2019-01-14T06:20:31.083Z,1.50
2019-01-14T06:22:59.774Z,1.73
2019-01-14T06:25:28.114Z,1.70
2019-01-14T06:27:56.457Z,1.10
2019-01-14T06:30:28.514Z,1.83
2019-01-14T06:32:56.837Z,1.77
2019-01-14T06:35:25.182Z,1.20
2019-01-14T06:37:53.509Z,1.30
2019-01-14T06:40:21.848Z,1.90
2019-01-14T06:42:50.201Z,1.63
2019-01-14T06:45:18.545Z,1.80
2019-01-14T06:47:46.881Z,1.50
2019-01-14T06:50:16.402Z,1.33
2019-01-14T06:52:44.749Z,1.43
2019-01-14T06:55:13.325Z,1.40
2019-01-14T06:57:41.733Z,1.37
2019-01-14T07:00:11.705Z,1.27
2019-01-14T07:02:40.147Z,1.80
2019-01-14T07:05:08.974Z,1.57
2019-01-14T07:07:37.679Z,1.40
2019-01-14T07:10:07.889Z,1.17
2019-01-14T07:12:36.291Z,1.27
2019-01-14T07:15:05.984Z,1.30
2019-01-14T07:17:34.390Z,1.00
2019-01-14T07:20:02.902Z,1.83
2019-01-14T07:22:31.238Z,1.97
2019-01-14T07:24:59.691Z,1.70
2019-01-14T07:27:28.053Z,1.90
2019-01-14T07:29:56.677Z,1.13
2019-01-14T07:32:25.022Z,1.83
2019-01-14T07:34:53.354Z,2.10
2019-01-14T07:37:21.690Z,1.83
2019-01-14T07:39:50.040Z,2.20
2019-01-14T07:42:18.379Z,2.07
2019-01-14T07:44:47.017Z,1.70
2019-01-14T07:47:15.360Z,1.57
2019-01-14T07:49:43.701Z,1.77
2019-01-14T07:52:12.069Z,2.07
2019-01-14T07:54:40.403Z,1.83
2019-01-14T07:57:08.746Z,2.97
2019-01-14T07:59:37.077Z,1.40
2019-01-14T08:02:05.977Z,1.80
2019-01-14T08:04:34.344Z,1.47
2019-01-14T08:07:03.035Z,1.70
2019-01-14T08:09:32.144Z,1.67
2019-01-14T08:12:00.473Z,1.80
2019-01-14T08:14:29.121Z,2.27
2019-01-14T08:16:57.767Z,2.30
2019-01-14T08:19:26.157Z,1.67
2019-01-14T08:21:54.521Z,1.17
2019-01-14T08:24:22.858Z,1.60
2019-01-14T08:26:51.231Z,1.30
2019-01-14T08:29:19.561Z,1.60
2019-01-14T08:31:47.897Z,1.70
2019-01-14T08:34:16.239Z,2.47
2019-01-14T08:36:44.580Z,2.10
2019-01-14T08:39:12.925Z,2.37
2019-01-14T08:41:42.921Z,2.10
2019-01-14T08:44:11.736Z,2.27
2019-01-14T08:46:40.150Z,2.13
2019-01-14T08:49:08.492Z,2.97
2019-01-14T08:51:36.851Z,3.70
2019-01-14T08:54:05.188Z,2.97
2019-01-14T08:56:33.525Z,2.57
2019-01-14T08:59:01.867Z,1.93
2019-01-14T09:01:30.281Z,1.70
2019-01-14T09:04:00.044Z,1.90
2019-01-14T09:06:28.337Z,1.53
2019-01-14T09:08:56.679Z,1.33
2019-01-14T09:11:25.029Z,1.40
2019-01-14T09:13:53.361Z,1.63
2019-01-14T09:16:21.701Z,1.23
2019-01-14T09:18:50.041Z,1.63
2019-01-14T09:21:18.485Z,1.80
2019-01-14T09:23:46.820Z,1.50
2019-01-14T09:26:15.167Z,1.80
2019-01-14T09:28:43.572Z,1.43
2019-01-14T09:31:11.912Z,2.20
2019-01-14T09:33:40.552Z,2.23
2019-01-14T09:36:08.893Z,2.13
2019-01-14T09:38:37.293Z,1.30
2019-01-14T09:41:05.639Z,2.73
2019-01-14T09:43:34.045Z,2.17
2019-01-14T09:46:02.708Z,1.80
2019-01-14T09:48:31.058Z,1.47
2019-01-14T09:50:59.389Z,1.57
2019-01-14T09:53:27.735Z,2.43
2019-01-14T09:55:56.074Z,1.10
2019-01-14T09:58:24.585Z,1.10
2019-01-14T10:00:52.908Z,1.33
2019-01-14T10:03:21.318Z,1.20
2019-01-14T10:05:49.654Z,1.03
2019-01-14T10:08:17.998Z,1.10
2019-01-14T10:10:46.397Z,1.13
2019-01-14T10:13:14.744Z,0.83
2019-01-14T10:15:44.156Z,1.03
2019-01-14T10:18:12.557Z,1.10
2019-01-14T10:20:40.928Z,1.17
2019-01-14T10:23:09.343Z,1.40
2019-01-14T10:25:37.683Z,1.30
2019-01-14T10:28:07.195Z,1.00
2019-01-14T10:30:35.523Z,1.30
2019-01-14T10:33:03.930Z,0.97
2019-01-14T10:35:32.274Z,1.40
2019-01-14T10:38:00.681Z,1.53
2019-01-14T10:40:29.027Z,1.60
2019-01-14T10:42:57.351Z,1.20
2019-01-14T10:45:25.685Z,1.33
2019-01-14T10:47:54.319Z,1.40
2019-01-14T10:50:22.644Z,1.33
2019-01-14T10:52:51.064Z,1.60
2019-01-14T10:55:19.405Z,1.40
2019-01-14T10:57:47.813Z,1.90
2019-01-14T11:00:20.140Z,1.57
2019-01-14T11:02:48.551Z,1.37
2019-01-14T11:05:18.824Z,1.30
2019-01-14T11:07:47.236Z,1.50
2019-01-14T11:10:15.641Z,1.00
2019-01-14T11:12:43.972Z,1.57
2019-01-14T11:15:14.004Z,1.00
2019-01-14T11:17:42.410Z,1.53
2019-01-14T11:20:12.391Z,1.33
2019-01-14T11:22:40.785Z,1.40
2019-01-14T11:25:09.189Z,1.60
2019-01-14T11:27:37.598Z,1.57
2019-01-14T11:30:07.646Z,1.17
2019-01-14T11:32:36.011Z,1.70
2019-01-14T11:35:05.301Z,1.70
2019-01-14T11:37:33.667Z,1.57
2019-01-14T11:40:04.019Z,1.00
2019-01-14T11:42:32.438Z,2.03
2019-01-14T11:45:00.775Z,1.70
2019-01-14T11:47:29.185Z,1.80
2019-01-14T11:49:57.515Z,1.33
2019-01-14T11:52:25.881Z,1.30
2019-01-14T11:54:54.270Z,1.67
2019-01-14T11:57:22.657Z,1.80
2019-01-14T11:59:51.006Z,1.40
2019-01-14T12:02:19.345Z,1.50
2019-01-14T12:04:47.692Z,1.50
2019-01-14T12:07:16.149Z,0.80
2019-01-14T12:09:44.493Z,1.00
2019-01-14T12:12:12.820Z,1.90
2019-01-14T12:14:42.803Z,0.97
2019-01-14T12:17:11.598Z,1.57
2019-01-14T12:19:39.947Z,1.77
2019-01-14T12:22:08.285Z,1.07
2019-01-14T12:24:37.893Z,1.40
2019-01-14T12:27:06.236Z,2.33
2019-01-14T12:29:36.198Z,1.63
2019-01-14T12:32:04.530Z,1.10
2019-01-14T12:34:32.861Z,1.17
2019-01-14T12:37:01.206Z,1.00
2019-01-14T12:39:30.732Z,1.20
2019-01-14T12:41:59.126Z,1.00
2019-01-14T12:44:27.458Z,0.63
2019-01-14T12:46:55.784Z,0.90
2019-01-14T12:49:24.124Z,1.50
2019-01-14T12:51:52.449Z,1.77
2019-01-14T12:54:20.785Z,2.50
2019-01-14T12:56:49.130Z,1.40
2019-01-14T12:59:17.773Z,0.80
2019-01-14T13:01:46.122Z,1.13
2019-01-14T13:04:14.454Z,1.17
2019-01-14T13:06:42.873Z,1.20
2019-01-14T13:09:11.373Z,0.80
2019-01-14T13:11:39.730Z,0.90
2019-01-14T13:14:08.058Z,1.37
2019-01-14T13:16:36.389Z,0.80
2019-01-14T13:19:04.738Z,1.00
2019-01-14T13:21:33.140Z,1.10
2019-01-14T13:24:01.755Z,0.87
2019-01-14T13:26:30.105Z,1.13
2019-01-14T13:28:58.437Z,1.30
2019-01-14T13:31:26.781Z,0.70
2019-01-14T13:33:55.105Z,2.00
2019-01-14T13:36:23.442Z,1.53
2019-01-14T13:38:51.779Z,1.00
2019-01-14T13:41:20.180Z,1.00
2019-01-14T13:43:48.516Z,1.20
2019-01-14T13:46:16.849Z,1.13
2019-01-14T13:48:45.190Z,1.50
2019-01-14T13:51:13.598Z,1.13
2019-01-14T13:53:41.940Z,1.10
2019-01-14T13:56:10.279Z,0.93
2019-01-14T13:58:38.611Z,0.90
2019-01-14T14:01:06.944Z,1.40
2019-01-14T14:03:35.289Z,1.33
2019-01-14T14:06:03.620Z,1.13
2019-01-14T14:08:31.959Z,0.80
2019-01-14T14:11:00.294Z,1.00
2019-01-14T14:13:28.626Z,1.00
2019-01-14T14:15:56.968Z,0.80
2019-01-14T14:18:25.299Z,1.10
2019-01-14T14:20:53.703Z,0.70
2019-01-14T14:23:22.105Z,0.73
2019-01-14T14:25:50.488Z,1.20
2019-01-14T14:28:18.853Z,1.30
2019-01-14T14:30:47.247Z,1.13
2019-01-14T14:33:15.587Z,1.20
2019-01-14T14:35:43.991Z,0.70
2019-01-14T14:38:13.228Z,0.90
2019-01-14T14:40:41.574Z,0.90
2019-01-14T14:43:10.216Z,1.20
2019-01-14T14:45:38.606Z,1.00
2019-01-14T14:48:07.019Z,1.30
2019-01-14T14:50:35.364Z,1.27
2019-01-14T14:53:03.705Z,0.80
2019-01-14T14:55:32.037Z,1.23
2019-01-14T14:58:01.553Z,1.00
2019-01-14T15:00:30.262Z,1.30
2019-01-14T15:02:58.656Z,0.87
2019-01-14T15:05:27.001Z,1.13
2019-01-14T15:07:55.334Z,1.17
2019-01-14T15:10:23.672Z,1.10
2019-01-14T15:12:52.474Z,1.53
2019-01-14T15:15:23.387Z,1.10
2019-01-14T15:17:51.712Z,0.97
2019-01-14T15:20:20.925Z,1.47
2019-01-14T15:22:49.340Z,1.30
2019-01-14T15:25:17.682Z,1.30
2019-01-14T15:27:46.095Z,1.10
2019-01-14T15:30:16.055Z,1.20
2019-01-14T15:32:44.389Z,1.27
2019-01-14T15:35:12.717Z,1.53
2019-01-14T15:37:41.057Z,1.30
2019-01-14T15:40:13.242Z,1.43
2019-01-14T15:42:41.577Z,1.10
2019-01-14T15:45:11.374Z,1.00
2019-01-14T15:47:39.788Z,1.27
2019-01-14T15:50:09.091Z,1.20
2019-01-14T15:52:37.415Z,1.47
2019-01-14T15:55:07.384Z,0.97
2019-01-14T15:57:35.716Z,1.97
2019-01-14T16:00:05.856Z,1.80
2019-01-14T16:02:35.371Z,1.13
2019-01-14T16:05:04.572Z,1.70
2019-01-14T16:07:32.897Z,1.00
2019-01-14T16:10:01.242Z,2.03
2019-01-14T16:12:29.639Z,1.80
2019-01-14T16:14:57.983Z,1.27
2019-01-14T16:17:26.330Z,0.90
2019-01-14T16:19:54.705Z,1.10
2019-01-14T16:22:23.612Z,1.50
2019-01-14T16:24:51.964Z,1.30
2019-01-14T16:27:20.295Z,1.07
2019-01-14T16:29:48.633Z,1.23
2019-01-14T16:32:17.041Z,1.20
2019-01-14T16:34:45.364Z,1.10
2019-01-14T16:37:13.770Z,1.30
2019-01-14T16:39:42.109Z,1.00
2019-01-14T16:42:10.446Z,1.10
2019-01-14T16:44:38.782Z,1.20
2019-01-14T16:47:07.123Z,1.30
2019-01-14T16:49:35.457Z,0.90
2019-01-14T16:52:03.781Z,0.87
2019-01-14T16:54:32.193Z,1.00
2019-01-14T16:57:00.558Z,1.57
2019-01-14T16:59:28.921Z,1.40
2019-01-14T17:01:57.258Z,2.10
2019-01-14T17:04:27.236Z,1.50
2019-01-14T17:06:55.553Z,1.23
2019-01-14T17:09:26.238Z,1.50
2019-01-14T17:11:54.569Z,1.07
2019-01-14T17:14:23.773Z,1.00
2019-01-14T17:16:53.230Z,1.40
2019-01-14T17:19:22.733Z,1.10
2019-01-14T17:21:52.358Z,1.00
2019-01-14T17:24:20.687Z,1.30
2019-01-14T17:26:50.764Z,0.73
2019-01-14T17:29:19.101Z,0.93
2019-01-14T17:31:47.505Z,1.20
2019-01-14T17:34:15.849Z,1.43
2019-01-14T17:36:44.181Z,1.17
2019-01-14T17:39:12.679Z,1.60
2019-01-14T17:41:42.569Z,1.40
2019-01-14T17:44:10.901Z,0.90
2019-01-14T17:46:39.305Z,0.87
2019-01-14T17:49:07.638Z,1.00
2019-01-14T17:51:36.045Z,1.17
2019-01-14T17:54:04.398Z,1.17
2019-01-14T17:56:32.908Z,0.93
2019-01-14T17:59:01.255Z,1.17
2019-01-14T18:01:29.597Z,1.10
2019-01-14T18:03:57.940Z,1.00
2019-01-14T18:06:26.289Z,1.63
2019-01-14T18:08:55.672Z,1.00
2019-01-14T18:11:24.042Z,1.07
2019-01-14T18:13:52.371Z,2.00
2019-01-14T18:16:20.723Z,1.13
2019-01-14T18:18:49.058Z,1.50
2019-01-14T18:21:17.490Z,1.90
2019-01-14T18:23:46.165Z,1.40
2019-01-14T18:26:14.510Z,1.50
2019-01-14T18:28:42.850Z,1.63
2019-01-14T18:31:12.780Z,1.77
2019-01-14T18:33:41.132Z,1.93
2019-01-14T18:36:09.465Z,2.40
2019-01-14T18:38:37.805Z,2.43
2019-01-14T18:41:06.150Z,2.43
2019-01-14T18:43:34.477Z,1.60
2019-01-14T18:46:02.810Z,1.77
2019-01-14T18:48:31.217Z,1.17
2019-01-14T18:50:59.545Z,1.90
2019-01-14T18:53:27.884Z,1.60
2019-01-14T18:55:56.230Z,1.40
2019-01-14T18:58:24.550Z,1.77
2019-01-14T19:00:53.078Z,2.40
2019-01-14T19:03:21.413Z,2.30
2019-01-14T19:05:49.756Z,2.37
2019-01-14T19:08:18.107Z,2.60
2019-01-14T19:10:46.456Z,3.90
2019-01-14T19:13:14.866Z,3.67
2019-01-14T19:15:43.205Z,2.73
2019-01-14T19:18:11.536Z,1.87
2019-01-14T19:20:40.044Z,1.23
2019-01-14T19:23:08.649Z,1.63
2019-01-14T19:25:37.058Z,1.80
2019-01-14T19:28:05.571Z,1.70
2019-01-14T19:30:33.901Z,1.90
2019-01-14T19:33:02.239Z,1.60
2019-01-14T19:35:30.581Z,2.17
2019-01-14T19:37:58.923Z,1.47
2019-01-14T19:40:27.326Z,1.50
2019-01-14T19:42:55.720Z,1.63
2019-01-14T19:45:24.077Z,1.50
2019-01-14T19:47:52.419Z,1.93
2019-01-14T19:50:21.388Z,3.63
2019-01-14T19:52:52.476Z,3.63
2019-01-14T19:55:20.812Z,6.63
2019-01-14T19:57:49.146Z,4.63
2019-01-14T20:00:19.116Z,3.00
2019-01-14T20:02:47.616Z,2.33
2019-01-14T20:05:16.036Z,2.30
2019-01-14T20:07:44.774Z,2.83
2019-01-14T20:10:14.584Z,4.90
2019-01-14T20:12:42.918Z,4.83
2019-01-14T20:15:12.823Z,5.67
2019-01-14T20:17:41.156Z,6.07
2019-01-14T20:20:09.881Z,6.97
2019-01-14T20:22:38.219Z,7.87
2019-01-14T20:25:07.837Z,8.13
2019-01-14T20:27:36.175Z,7.57
2019-01-14T20:30:09.096Z,12.30
2019-01-14T20:32:37.460Z,8.67
2019-01-14T20:35:05.814Z,5.13
2019-01-14T20:37:35.463Z,4.93
2019-01-14T20:40:05.429Z,4.23
2019-01-14T20:42:33.758Z,4.70
2019-01-14T20:45:02.103Z,3.70
2019-01-14T20:47:30.441Z,3.13
2019-01-14T20:49:58.790Z,3.53
2019-01-14T20:52:28.763Z,3.60
2019-01-14T20:54:57.370Z,4.37
2019-01-14T20:57:25.716Z,4.17
2019-01-14T20:59:54.956Z,5.57
2019-01-14T21:02:23.306Z,6.00
2019-01-14T21:04:51.636Z,4.03
2019-01-14T21:07:19.986Z,4.20
2019-01-14T21:09:48.393Z,3.93
2019-01-14T21:12:16.734Z,3.30
2019-01-14T21:14:45.071Z,4.00
2019-01-14T21:17:13.449Z,4.10
2019-01-14T21:19:41.789Z,2.60
2019-01-14T21:22:10.195Z,2.73
2019-01-14T21:24:38.525Z,2.30
2019-01-14T21:27:06.937Z,2.60
2019-01-14T21:29:35.268Z,2.90
2019-01-14T21:32:03.686Z,2.37
2019-01-14T21:34:32.031Z,2.97
2019-01-14T21:37:00.349Z,3.07
2019-01-14T21:39:28.686Z,2.47
2019-01-14T21:41:57.018Z,2.47
2019-01-14T21:44:25.368Z,2.57
2019-01-14T21:46:54.008Z,2.80
2019-01-14T21:49:22.349Z,2.30
2019-01-14T21:51:50.684Z,1.97
2019-01-14T21:54:19.010Z,2.30
2019-01-14T21:56:47.362Z,1.87
2019-01-14T21:59:15.678Z,2.10
2019-01-14T22:01:44.245Z,1.50
2019-01-14T22:04:12.581Z,1.60
2019-01-14T22:06:41.233Z,3.07
2019-01-14T22:09:09.802Z,3.30
2019-01-14T22:11:38.831Z,2.33
2019-01-14T22:14:07.445Z,2.73
2019-01-14T22:16:35.790Z,3.30
2019-01-14T22:19:04.126Z,2.93
2019-01-14T22:21:32.521Z,2.23
2019-01-14T22:24:00.857Z,3.00
2019-01-14T22:26:30.509Z,2.53
2019-01-14T22:28:58.921Z,3.47
2019-01-14T22:31:27.262Z,2.90
2019-01-14T22:33:55.602Z,2.20
2019-01-14T22:36:23.941Z,1.90
2019-01-14T22:38:52.273Z,2.67
2019-01-14T22:41:20.595Z,2.80
2019-01-14T22:43:50.537Z,2.90
2019-01-14T22:46:19.168Z,2.53
2019-01-14T22:48:47.497Z,2.70
2019-01-14T22:51:15.846Z,3.23
2019-01-14T22:53:44.189Z,2.33
2019-01-14T22:56:12.521Z,2.70
2019-01-14T22:58:40.861Z,2.77
2019-01-14T23:01:12.610Z,2.80
2019-01-14T23:03:42.055Z,2.77
2019-01-14T23:06:10.456Z,2.40
2019-01-14T23:08:38.782Z,2.30
2019-01-14T23:11:07.126Z,3.20
2019-01-14T23:13:36.721Z,2.87
2019-01-14T23:16:05.125Z,3.30
2019-01-14T23:18:33.522Z,2.83
2019-01-14T23:21:01.868Z,2.90
2019-01-14T23:23:30.198Z,2.87
2019-01-14T23:25:58.622Z,2.13
2019-01-14T23:28:27.017Z,2.77
2019-01-14T23:30:55.361Z,2.63
2019-01-14T23:33:23.692Z,3.03
2019-01-14T23:35:52.200Z,2.80
2019-01-14T23:38:21.722Z,2.90
2019-01-14T23:40:50.046Z,3.00
2019-01-14T23:43:18.458Z,2.73
2019-01-14T23:45:46.799Z,2.73
2019-01-14T23:48:15.132Z,2.87
2019-01-14T23:50:43.457Z,2.33
2019-01-14T23:53:11.785Z,2.53
2019-01-14T23:55:40.129Z,2.47
2019-01-14T23:58:08.470Z,2.37
